Time;durP1;ratioP1;P1;durP2;ratioP2;P2;SDS_P1;SDS_P2;PMS_P1;PMS_P2;Temp;Humidity;BMP_temperature;BMP_pressure;BME280_temperature;BME280_humidity;BME280_pressure;Samples;Min_cycle;Max_cycle;Signal;HPM_P1;HPM_P2
2021/12/20 00:00:09;;;;;;;10.95;6.07;;;;;;;;;;5033090;28;20053;-36
2021/12/20 00:02:38;;;;;;;10.68;5.85;;;;;;;;;;5033231;28;20123;-35
2021/12/20 00:05:04;;;;;;;11.90;6.55;;;;;;;;;;5032952;28;20106;-35
2021/12/20 00:07:29;;;;;;;8.25;4.90;;;;;;;;;;5033347;28;20029;-36
2021/12/20 00:09:55;;;;;;;11.40;6.38;;;;;;;;;;5032896;28;20018;-35
2021/12/20 00:12:20;;;;;;;9.93;4.57;;;;;;;;;;5032927;28;20427;-35
2021/12/20 00:14:46;;;;;;;11.65;6.40;;;;;;;;;;5033058;28;20043;-35
2021/12/20 00:17:11;;;;;;;6.90;4.80;;;;;;;;;;5032903;28;20499;-36
2021/12/20 00:19:37;;;;;;;9.02;5.03;;;;;;;;;;5032769;28;20017;-36
2021/12/20 00:22:02;;;;;;;12.57;4.15;;;;;;;;;;5033019;28;20029;-35
2021/12/20 00:24:28;;;;;;;9.60;5.57;;;;;;;;;;5032756;28;20448;-36
2021/12/20 00:26:53;;;;;;;8.77;5.05;;;;;;;;;;5032856;28;20032;-35
2021/12/20 00:29:19;;;;;;;9.52;5.28;;;;;;;;;;5032519;28;20423;-36
2021/12/20 00:31:44;;;;;;;8.70;4.80;;;;;;;;;;5032505;28;20052;-36
2021/12/20 00:34:10;;;;;;;4.88;3.08;;;;;;;;;;5031202;28;20021;-35
2021/12/20 00:36:35;;;;;;;8.88;5.00;;;;;;;;;;5032809;28;20475;-36
2021/12/20 00:41:45;;;;;;;11.13;4.93;;;;;;;;;;5032363;28;20071;-36
2021/12/20 00:44:10;;;;;;;7.05;4.28;;;;;;;;;;5032489;28;20061;-36
2021/12/20 00:46:36;;;;;;;15.00;5.10;;;;;;;;;;5032532;28;20476;-35
2021/12/20 00:49:01;;;;;;;5.25;3.33;;;;;;;;;;5032112;28;20071;-36
2021/12/20 00:51:27;;;;;;;8.85;5.68;;;;;;;;;;5032210;28;20021;-36
2021/12/20 00:53:52;;;;;;;9.05;5.28;;;;;;;;;;5032315;28;20029;-37
2021/12/20 00:56:18;;;;;;;8.98;4.53;;;;;;;;;;5032024;28;20037;-36
2021/12/20 00:58:44;;;;;;;12.30;4.88;;;;;;;;;;5031975;28;20026;-36
2021/12/20 01:01:10;;;;;;;6.22;3.95;;;;;;;;;;5032003;28;20037;-36
2021/12/20 01:03:36;;;;;;;16.38;6.43;;;;;;;;;;5032041;28;20041;-35
2021/12/20 01:06:01;;;;;;;11.48;5.20;;;;;;;;;;5032197;28;20041;-36
2021/12/20 01:08:32;;;;;;;10.02;4.25;;;;;;;;;;5031838;28;20155;-36
2021/12/20 01:10:58;;;;;;;8.63;4.20;;;;;;;;;;5031823;28;20391;-35
2021/12/20 01:13:28;;;;;;;10.60;4.95;;;;;;;;;;5032117;28;20024;-38
2021/12/20 01:15:54;;;;;;;6.07;4.05;;;;;;;;;;5031830;28;20053;-36
2021/12/20 01:18:20;;;;;;;9.13;4.78;;;;;;;;;;5031777;28;20156;-35
2021/12/20 01:20:46;;;;;;;10.43;5.13;;;;;;;;;;5031890;28;20104;-35
2021/12/20 01:23:12;;;;;;;11.43;5.78;;;;;;;;;;5031644;28;20403;-35
2021/12/20 01:25:38;;;;;;;11.57;5.50;;;;;;;;;;5031687;28;20029;-35
2021/12/20 01:28:03;;;;;;;12.02;5.60;;;;;;;;;;5031510;28;20029;-36
2021/12/20 01:30:29;;;;;;;8.02;4.32;;;;;;;;;;5031834;28;20376;-35
2021/12/20 01:32:55;;;;;;;9.35;4.35;;;;;;;;;;5031433;28;20024;-35
2021/12/20 01:35:23;;;;;;;12.85;4.85;;;;;;;;;;5031452;28;20084;-35
2021/12/20 01:37:48;;;;;;;11.88;4.97;;;;;;;;;;5031764;28;20049;-36
2021/12/20 01:40:15;;;;;;;10.35;4.63;;;;;;;;;;5030809;28;20102;-36
2021/12/20 01:42:41;;;;;;;7.25;4.05;;;;;;;;;;5031399;28;20697;-36
2021/12/20 01:45:10;;;;;;;8.88;4.57;;;;;;;;;;5031268;28;20116;-36
2021/12/20 01:47:38;;;;;;;8.77;4.20;;;;;;;;;;5031668;28;20039;-35
2021/12/20 01:50:20;;;;;;;11.30;5.07;;;;;;;;;;5031500;28;20427;-35
2021/12/20 01:52:45;;;;;;;7.88;3.95;;;;;;;;;;5031253;28;20048;-36
2021/12/20 01:55:13;;;;;;;5.95;3.78;;;;;;;;;;5031507;28;20479;-43
2021/12/20 01:57:39;;;;;;;5.53;3.58;;;;;;;;;;5031458;28;20029;-35
2021/12/20 02:00:06;;;;;;;7.97;4.57;;;;;;;;;;5031174;28;20440;-36
2021/12/20 02:02:31;;;;;;;9.95;4.40;;;;;;;;;;5031183;28;20193;-36
2021/12/20 02:05:05;;;;;;;11.68;6.05;;;;;;;;;;5031116;28;20127;-35
2021/12/20 02:07:49;;;;;;;7.53;4.10;;;;;;;;;;5031136;28;20555;-36
2021/12/20 02:10:15;;;;;;;9.07;4.32;;;;;;;;;;5031215;28;20040;-35
2021/12/20 02:12:40;;;;;;;8.35;4.28;;;;;;;;;;5031054;28;20026;-36
2021/12/20 02:15:06;;;;;;;7.03;4.32;;;;;;;;;;5030945;28;20049;-35
2021/12/20 02:17:32;;;;;;;10.30;5.43;;;;;;;;;;5031358;28;20079;-35
2021/12/20 02:20:01;;;;;;;10.35;4.38;;;;;;;;;;5029565;28;20041;-36
2021/12/20 02:22:26;;;;;;;10.80;6.38;;;;;;;;;;5031290;28;20030;-36
2021/12/20 02:24:52;;;;;;;9.05;5.55;;;;;;;;;;5031039;28;20030;-36
2021/12/20 02:27:19;;;;;;;10.20;5.43;;;;;;;;;;5030945;28;20025;-36
2021/12/20 02:30:00;;;;;;;10.73;5.30;;;;;;;;;;5030887;28;20457;-35
2021/12/20 02:37:54;;;;;;;11.88;5.80;;;;;;;;;;5030814;28;20032;-36
2021/12/20 02:40:21;;;;;;;12.15;4.93;;;;;;;;;;5030660;28;20060;-36
2021/12/20 02:42:48;;;;;;;15.15;7.93;;;;;;;;;;5030791;28;20029;-36
2021/12/20 02:45:15;;;;;;;13.57;6.32;;;;;;;;;;5030855;28;20025;-35
2021/12/20 02:47:42;;;;;;;9.07;5.18;;;;;;;;;;5031043;28;20021;-36
2021/12/20 02:50:08;;;;;;;11.30;4.55;;;;;;;;;;5030746;28;20048;-35
2021/12/20 02:52:34;;;;;;;10.40;4.88;;;;;;;;;;5032410;28;20060;-35
2021/12/20 02:54:59;;;;;;;8.18;4.60;;;;;;;;;;5034443;28;20132;-37
2021/12/20 02:57:25;;;;;;;12.25;6.32;;;;;;;;;;5034378;28;20075;-35
2021/12/20 02:59:50;;;;;;;10.35;5.75;;;;;;;;;;5034519;28;20033;-36
2021/12/20 03:02:18;;;;;;;15.27;6.78;;;;;;;;;;5034265;28;20747;-35
2021/12/20 03:04:44;;;;;;;15.68;6.85;;;;;;;;;;5034575;28;20357;-37
2021/12/20 03:07:12;;;;;;;13.18;6.70;;;;;;;;;;5034281;28;20025;-36
2021/12/20 03:09:40;;;;;;;17.55;8.30;;;;;;;;;;5034343;28;20045;-36
2021/12/20 03:12:07;;;;;;;10.75;5.82;;;;;;;;;;5034371;28;20104;-36
2021/12/20 03:14:38;;;;;;;12.15;5.78;;;;;;;;;;5034266;28;20075;-36
2021/12/20 03:17:03;;;;;;;18.17;7.22;;;;;;;;;;5033921;28;20061;-35
2021/12/20 03:19:30;;;;;;;12.52;5.82;;;;;;;;;;5034249;28;20049;-35
2021/12/20 03:21:56;;;;;;;15.43;6.82;;;;;;;;;;5034151;28;20060;-36
2021/12/20 03:24:22;;;;;;;14.40;6.28;;;;;;;;;;5033933;28;20051;-36
2021/12/20 03:26:48;;;;;;;12.20;5.50;;;;;;;;;;5033768;28;20029;-36
2021/12/20 03:29:13;;;;;;;10.88;5.95;;;;;;;;;;5034058;28;20575;-35
2021/12/20 03:31:39;;;;;;;20.42;7.43;;;;;;;;;;5033992;28;20026;-35
2021/12/20 03:34:05;;;;;;;15.63;7.80;;;;;;;;;;5033641;28;20538;-35
2021/12/20 03:36:31;;;;;;;12.40;6.97;;;;;;;;;;5033857;28;20060;-35
2021/12/20 03:38:56;;;;;;;8.18;5.72;;;;;;;;;;5033492;28;20025;-36
2021/12/20 03:41:22;;;;;;;14.73;8.13;;;;;;;;;;5033676;28;20083;-36
2021/12/20 03:43:48;;;;;;;8.85;5.60;;;;;;;;;;5033979;28;20388;-35
2021/12/20 03:46:14;;;;;;;14.52;5.40;;;;;;;;;;5033451;28;20040;-35
2021/12/20 03:48:39;;;;;;;11.27;5.40;;;;;;;;;;5033440;28;20028;-35
2021/12/20 03:51:05;;;;;;;11.25;6.57;;;;;;;;;;5033591;28;20049;-36
2021/12/20 03:53:31;;;;;;;14.15;7.03;;;;;;;;;;5033628;28;20041;-35
2021/12/20 03:55:56;;;;;;;14.27;6.20;;;;;;;;;;5033543;28;20037;-36
2021/12/20 03:58:22;;;;;;;11.77;5.93;;;;;;;;;;5033189;28;20404;-36
2021/12/20 04:00:49;;;;;;;8.60;4.90;;;;;;;;;;5033441;28;20435;-36
2021/12/20 04:03:14;;;;;;;10.95;5.50;;;;;;;;;;5031480;28;20483;-36
2021/12/20 04:05:41;;;;;;;6.90;4.47;;;;;;;;;;5033034;28;20072;-36
2021/12/20 04:08:06;;;;;;;13.27;6.63;;;;;;;;;;5032970;28;20025;-36
2021/12/20 04:10:32;;;;;;;11.70;5.15;;;;;;;;;;5033025;28;20044;-35
2021/12/20 04:12:58;;;;;;;9.35;5.05;;;;;;;;;;5048221;28;20030;-35
2021/12/20 04:15:24;;;;;;;14.23;5.38;;;;;;;;;;5031626;28;20087;-35
2021/12/20 04:17:49;;;;;;;13.32;7.65;;;;;;;;;;5032847;28;20053;-35
2021/12/20 04:20:15;;;;;;;9.38;5.90;;;;;;;;;;5032765;28;20038;-36
2021/12/20 04:22:41;;;;;;;9.30;4.80;;;;;;;;;;5032841;28;20071;-36
2021/12/20 04:25:07;;;;;;;9.27;5.82;;;;;;;;;;5031347;28;20037;-35
2021/12/20 04:27:32;;;;;;;8.52;5.93;;;;;;;;;;5032609;28;20120;-35
2021/12/20 04:29:58;;;;;;;7.32;4.85;;;;;;;;;;5032647;28;20096;-35
2021/12/20 04:32:23;;;;;;;13.57;7.30;;;;;;;;;;5032902;28;20029;-36
2021/12/20 04:34:49;;;;;;;13.00;7.13;;;;;;;;;;5032465;28;20037;-35
2021/12/20 04:37:15;;;;;;;14.98;6.30;;;;;;;;;;5032504;28;20022;-35
2021/12/20 04:39:40;;;;;;;9.13;6.13;;;;;;;;;;5032232;28;20049;-36
2021/12/20 04:42:08;;;;;;;7.72;3.60;;;;;;;;;;5032631;28;20120;-36
2021/12/20 04:44:34;;;;;;;10.80;5.50;;;;;;;;;;5032384;28;20029;-35
2021/12/20 04:46:59;;;;;;;17.20;9.60;;;;;;;;;;5032553;28;20036;-36
2021/12/20 04:49:25;;;;;;;11.18;6.50;;;;;;;;;;5032207;28;20442;-36
2021/12/20 04:51:54;;;;;;;12.05;5.07;;;;;;;;;;5032167;28;20177;-35
2021/12/20 04:54:20;;;;;;;16.52;5.85;;;;;;;;;;5032521;28;20035;-36
2021/12/20 04:56:45;;;;;;;12.00;6.55;;;;;;;;;;5032370;28;20104;-35
2021/12/20 04:59:11;;;;;;;10.70;4.95;;;;;;;;;;5032331;28;20018;-35
2021/12/20 05:01:36;;;;;;;9.68;5.25;;;;;;;;;;5032056;28;20030;-36
2021/12/20 05:04:02;;;;;;;11.27;5.18;;;;;;;;;;5031901;28;20090;-36
2021/12/20 05:06:30;;;;;;;12.85;6.75;;;;;;;;;;5032020;28;20037;-36
2021/12/20 05:08:55;;;;;;;11.70;5.60;;;;;;;;;;5032135;28;20036;-36
2021/12/20 05:11:21;;;;;;;7.47;5.05;;;;;;;;;;5031863;28;20758;-35
2021/12/20 05:13:46;;;;;;;10.00;4.05;;;;;;;;;;5032140;28;20068;-36
2021/12/20 05:16:12;;;;;;;10.98;5.03;;;;;;;;;;5031298;28;20045;-36
2021/12/20 05:18:37;;;;;;;8.63;4.40;;;;;;;;;;5031714;28;20486;-36
2021/12/20 05:21:03;;;;;;;7.97;4.40;;;;;;;;;;5032000;28;20541;-36
2021/12/20 05:23:28;;;;;;;19.27;7.32;;;;;;;;;;5031699;28;20446;-36
2021/12/20 05:25:55;;;;;;;14.57;6.05;;;;;;;;;;5031646;28;20021;-35
2021/12/20 05:28:21;;;;;;;14.85;4.90;;;;;;;;;;5031680;28;20029;-36
2021/12/20 05:30:49;;;;;;;9.07;4.63;;;;;;;;;;5031816;28;20025;-36
2021/12/20 05:33:15;;;;;;;16.77;7.07;;;;;;;;;;5031606;28;20033;-35
2021/12/20 05:35:40;;;;;;;5.03;2.83;;;;;;;;;;5031799;28;20041;-36
2021/12/20 05:38:06;;;;;;;10.07;6.75;;;;;;;;;;5031265;28;20037;-35
2021/12/20 05:40:31;;;;;;;8.13;2.58;;;;;;;;;;5031297;28;20137;-36
2021/12/20 05:42:56;;;;;;;7.50;3.90;;;;;;;;;;5031368;28;20041;-36
2021/12/20 05:45:23;;;;;;;9.73;4.93;;;;;;;;;;5031391;28;20132;-36
2021/12/20 05:47:49;;;;;;;12.88;6.00;;;;;;;;;;5031299;28;20033;-36
2021/12/20 05:50:16;;;;;;;9.35;4.72;;;;;;;;;;5031371;28;20071;-36
2021/12/20 05:52:41;;;;;;;10.02;4.68;;;;;;;;;;5031556;28;20068;-36
2021/12/20 05:55:07;;;;;;;7.45;3.75;;;;;;;;;;5031495;28;20620;-36
2021/12/20 05:57:33;;;;;;;11.48;5.82;;;;;;;;;;5031232;28;20499;-35
2021/12/20 05:59:59;;;;;;;12.00;6.70;;;;;;;;;;5031248;28;20060;-36
2021/12/20 06:02:25;;;;;;;11.30;5.40;;;;;;;;;;5031331;28;20026;-36
2021/12/20 06:04:51;;;;;;;5.28;2.83;;;;;;;;;;5029861;28;20021;-35
2021/12/20 06:07:17;;;;;;;9.65;4.75;;;;;;;;;;5031408;28;20025;-36
2021/12/20 06:09:43;;;;;;;10.70;4.05;;;;;;;;;;5031235;28;20097;-36
2021/12/20 06:12:08;;;;;;;7.93;4.05;;;;;;;;;;5029892;28;20171;-36
2021/12/20 06:14:34;;;;;;;9.80;4.38;;;;;;;;;;5030980;28;20040;-35
2021/12/20 06:17:00;;;;;;;10.20;5.60;;;;;;;;;;5031123;28;20034;-36
2021/12/20 06:19:25;;;;;;;4.78;2.80;;;;;;;;;;5031378;28;20101;-35
2021/12/20 06:21:51;;;;;;;6.95;4.25;;;;;;;;;;5030965;28;20025;-36
2021/12/20 06:24:16;;;;;;;5.57;3.13;;;;;;;;;;5031282;28;20460;-35
2021/12/20 06:26:42;;;;;;;8.07;3.65;;;;;;;;;;5032983;28;20034;-36
2021/12/20 06:29:07;;;;;;;0.60;0.57;;;;;;;;;;5034828;28;20251;-35
2021/12/20 06:31:33;;;;;;;3.03;1.50;;;;;;;;;;5034998;28;20029;-36
2021/12/20 06:33:58;;;;;;;8.20;3.42;;;;;;;;;;5035131;28;20516;-36
2021/12/20 06:36:26;;;;;;;8.07;3.92;;;;;;;;;;5034741;28;20113;-36
2021/12/20 06:38:53;;;;;;;4.97;3.58;;;;;;;;;;5034526;28;20045;-36
2021/12/20 06:41:19;;;;;;;1.45;1.35;;;;;;;;;;5034752;28;20041;-35
2021/12/20 06:43:44;;;;;;;5.78;2.38;;;;;;;;;;5034629;28;20139;-36
2021/12/20 06:46:09;;;;;;;4.47;2.50;;;;;;;;;;5034893;28;20037;-36
2021/12/20 06:48:35;;;;;;;5.90;3.03;;;;;;;;;;5034506;28;20147;-36
2021/12/20 06:51:01;;;;;;;6.25;3.05;;;;;;;;;;5034437;28;20030;-36
2021/12/20 06:53:27;;;;;;;8.25;2.30;;;;;;;;;;5034817;28;20468;-36
2021/12/20 06:55:53;;;;;;;6.43;3.55;;;;;;;;;;5034305;28;20049;-36
2021/12/20 06:58:18;;;;;;;5.50;3.03;;;;;;;;;;5034403;28;20126;-36
2021/12/20 07:00:44;;;;;;;5.03;2.60;;;;;;;;;;5034614;28;20136;-36
2021/12/20 07:03:10;;;;;;;3.25;2.78;;;;;;;;;;5034506;28;20025;-35
2021/12/20 07:05:35;;;;;;;4.53;2.78;;;;;;;;;;5034516;28;20475;-36
2021/12/20 07:08:02;;;;;;;6.30;3.53;;;;;;;;;;5034121;28;20025;-36
2021/12/20 07:10:28;;;;;;;2.55;1.38;;;;;;;;;;5034470;28;20060;-36
2021/12/20 07:12:53;;;;;;;1.85;1.67;;;;;;;;;;5032843;28;20075;-36
2021/12/20 07:15:19;;;;;;;3.22;2.60;;;;;;;;;;5034052;28;20052;-36
2021/12/20 07:17:45;;;;;;;2.05;1.75;;;;;;;;;;5033980;28;20112;-36
2021/12/20 07:20:11;;;;;;;7.93;3.70;;;;;;;;;;5033936;28;20113;-36
2021/12/20 07:22:37;;;;;;;6.18;4.35;;;;;;;;;;5034277;28;20025;-36
2021/12/20 07:25:03;;;;;;;1.45;1.35;;;;;;;;;;5033813;28;20068;-36
2021/12/20 07:27:30;;;;;;;3.45;2.05;;;;;;;;;;5033880;28;20040;-35
2021/12/20 07:29:56;;;;;;;7.18;3.30;;;;;;;;;;5033796;28;20116;-36
2021/12/20 07:32:22;;;;;;;3.90;2.40;;;;;;;;;;5033740;28;20508;-36
2021/12/20 07:34:48;;;;;;;4.95;2.58;;;;;;;;;;5033915;28;20046;-36
2021/12/20 07:37:13;;;;;;;2.50;1.40;;;;;;;;;;5031922;28;20031;-36
2021/12/20 07:39:39;;;;;;;9.20;3.92;;;;;;;;;;5033010;28;20053;-36
2021/12/20 07:42:04;;;;;;;3.00;2.17;;;;;;;;;;5033511;28;20044;-35
2021/12/20 07:44:30;;;;;;;1.85;1.65;;;;;;;;;;5033587;28;20041;-35
2021/12/20 07:46:56;;;;;;;5.85;2.88;;;;;;;;;;5033620;28;20439;-35
2021/12/20 07:49:21;;;;;;;7.05;3.92;;;;;;;;;;5033706;28;20041;-36
2021/12/20 07:51:47;;;;;;;2.25;1.45;;;;;;;;;;5033407;28;20116;-36
2021/12/20 07:54:13;;;;;;;2.70;2.22;;;;;;;;;;5033239;28;20037;-36
2021/12/20 07:56:38;;;;;;;1.40;1.17;;;;;;;;;;5033243;28;20041;-36
2021/12/20 07:59:04;;;;;;;3.42;2.05;;;;;;;;;;5033219;28;20029;-35
2021/12/20 08:01:34;;;;;;;1.10;0.70;;;;;;;;;;5033520;28;20197;-36
2021/12/20 08:04:00;;;;;;;4.15;2.38;;;;;;;;;;5033189;28;20021;-36
2021/12/20 08:06:25;;;;;;;4.80;1.98;;;;;;;;;;5033159;28;20048;-36
2021/12/20 08:08:51;;;;;;;5.53;3.38;;;;;;;;;;5033226;28;20108;-36
2021/12/20 08:11:16;;;;;;;1.27;1.27;;;;;;;;;;5033371;28;20025;-36
2021/12/20 08:13:44;;;;;;;8.45;3.97;;;;;;;;;;5033316;28;20041;-35
2021/12/20 08:16:14;;;;;;;8.15;2.83;;;;;;;;;;5032769;28;20091;-36
2021/12/20 08:18:43;;;;;;;3.05;1.77;;;;;;;;;;5033149;28;20036;-36
2021/12/20 08:21:09;;;;;;;5.53;2.78;;;;;;;;;;5032739;28;20029;-36
2021/12/20 08:23:34;;;;;;;4.38;2.63;;;;;;;;;;5033054;28;20033;-35
2021/12/20 08:26:00;;;;;;;5.55;2.08;;;;;;;;;;5033010;28;20029;-36
2021/12/20 08:28:27;;;;;;;8.18;2.55;;;;;;;;;;5032681;28;20025;-36
2021/12/20 08:30:52;;;;;;;2.72;1.90;;;;;;;;;;5032606;28;20021;-36
2021/12/20 08:33:18;;;;;;;4.05;2.38;;;;;;;;;;5032967;28;20028;-36
2021/12/20 08:35:43;;;;;;;5.03;3.08;;;;;;;;;;5032776;28;20033;-39
2021/12/20 08:38:09;;;;;;;1.67;1.17;;;;;;;;;;5032431;28;20033;-36
2021/12/20 08:40:34;;;;;;;3.40;2.47;;;;;;;;;;5032445;28;20045;-36
2021/12/20 08:43:01;;;;;;;1.45;1.23;;;;;;;;;;5032301;28;20025;-36
2021/12/20 08:45:27;;;;;;;7.72;3.53;;;;;;;;;;5032441;28;20100;-36
2021/12/20 08:47:53;;;;;;;4.40;2.60;;;;;;;;;;5032225;28;20782;-36
2021/12/20 08:50:19;;;;;;;3.58;2.15;;;;;;;;;;5032270;28;20377;-36
2021/12/20 08:52:45;;;;;;;2.67;1.92;;;;;;;;;;5032258;28;20117;-36
2021/12/20 08:55:10;;;;;;;4.60;1.95;;;;;;;;;;5030868;28;20135;-37
2021/12/20 08:57:36;;;;;;;8.27;2.80;;;;;;;;;;5032059;28;20395;-36
2021/12/20 09:00:04;;;;;;;4.07;2.40;;;;;;;;;;5032340;28;20037;-36
2021/12/20 09:02:29;;;;;;;4.30;1.98;;;;;;;;;;5032393;28;20018;-36
2021/12/20 09:04:54;;;;;;;5.13;2.85;;;;;;;;;;5031901;28;20022;-36
2021/12/20 09:07:20;;;;;;;6.50;2.35;;;;;;;;;;5031960;28;20057;-37
2021/12/20 09:09:47;;;;;;;2.35;1.77;;;;;;;;;;5031975;28;20025;-36
2021/12/20 09:12:14;;;;;;;3.15;2.38;;;;;;;;;;5032089;28;20387;-36
2021/12/20 09:14:41;;;;;;;6.30;2.45;;;;;;;;;;5031829;28;20025;-36
2021/12/20 09:17:06;;;;;;;5.65;2.20;;;;;;;;;;5031998;28;20115;-36
2021/12/20 09:19:34;;;;;;;3.53;1.85;;;;;;;;;;5032065;28;20025;-36
2021/12/20 09:22:00;;;;;;;3.90;2.40;;;;;;;;;;5031696;28;20131;-36
2021/12/20 09:24:25;;;;;;;2.72;1.75;;;;;;;;;;5032045;28;20057;-36
2021/12/20 09:26:51;;;;;;;1.20;1.00;;;;;;;;;;5031690;28;20549;-36
2021/12/20 09:29:17;;;;;;;5.35;2.20;;;;;;;;;;5031886;28;20075;-37
2021/12/20 09:31:44;;;;;;;2.80;1.98;;;;;;;;;;5031622;28;20045;-36
2021/12/20 09:34:10;;;;;;;3.20;1.40;;;;;;;;;;5031418;28;20021;-35
2021/12/20 09:36:35;;;;;;;3.85;1.65;;;;;;;;;;5031846;28;20368;-36
2021/12/20 09:39:01;;;;;;;4.40;2.80;;;;;;;;;;5031479;28;20134;-36
2021/12/20 09:44:05;;;;;;;2.42;1.80;;;;;;;;;;5031362;28;20029;-36
2021/12/20 09:46:31;;;;;;;2.85;1.88;;;;;;;;;;5030182;28;20392;-36
2021/12/20 09:49:00;;;;;;;3.05;1.80;;;;;;;;;;5031454;28;20049;-35
2021/12/20 09:51:26;;;;;;;4.90;1.92;;;;;;;;;;5031392;28;20483;-36
2021/12/20 09:53:52;;;;;;;6.40;2.05;;;;;;;;;;5031573;28;20031;-35
2021/12/20 09:56:19;;;;;;;3.75;2.53;;;;;;;;;;5031505;28;20037;-36
2021/12/20 09:58:46;;;;;;;2.00;1.75;;;;;;;;;;5031257;28;20041;-36
2021/12/20 10:01:13;;;;;;;2.92;1.50;;;;;;;;;;5033758;28;20037;-36
2021/12/20 10:03:39;;;;;;;1.45;1.23;;;;;;;;;;5038152;28;20057;-35
2021/12/20 10:06:05;;;;;;;1.00;1.00;;;;;;;;;;5037822;28;20037;-36
2021/12/20 10:08:36;;;;;;;3.05;2.15;;;;;;;;;;5037760;28;20064;-37
2021/12/20 10:11:06;;;;;;;4.30;2.10;;;;;;;;;;5037981;28;20100;-36
2021/12/20 10:13:31;;;;;;;4.38;2.50;;;;;;;;;;5038092;28;20079;-36
2021/12/20 10:15:57;;;;;;;2.50;1.33;;;;;;;;;;5036524;28;20519;-36
2021/12/20 10:18:24;;;;;;;2.90;2.17;;;;;;;;;;5037681;28;20108;-36
2021/12/20 10:20:51;;;;;;;3.10;1.85;;;;;;;;;;5037738;28;20091;-36
2021/12/20 10:23:19;;;;;;;2.55;1.88;;;;;;;;;;5037823;28;20424;-35
2021/12/20 10:25:46;;;;;;;4.00;2.03;;;;;;;;;;5037656;28;20479;-36
2021/12/20 10:28:12;;;;;;;4.07;1.80;;;;;;;;;;5037549;28;20041;-36
2021/12/20 10:30:40;;;;;;;2.65;2.08;;;;;;;;;;5037532;28;20464;-36
2021/12/20 10:33:08;;;;;;;1.30;1.17;;;;;;;;;;5037611;28;20379;-36
2021/12/20 10:35:51;;;;;;;4.18;2.20;;;;;;;;;;5037560;28;20400;-36
2021/12/20 10:38:20;;;;;;;5.88;2.42;;;;;;;;;;5037749;28;20087;-36
2021/12/20 10:40:50;;;;;;;1.58;1.48;;;;;;;;;;5037427;28;20072;-36
2021/12/20 10:43:18;;;;;;;4.00;1.63;;;;;;;;;;5036192;28;20447;-35
2021/12/20 10:45:43;;;;;;;3.25;2.35;;;;;;;;;;5037397;28;20032;-36
2021/12/20 10:48:10;;;;;;;2.88;1.25;;;;;;;;;;5037602;28;20395;-36
2021/12/20 10:50:42;;;;;;;4.45;2.03;;;;;;;;;;5037515;28;20028;-36
2021/12/20 10:53:16;;;;;;;2.03;1.33;;;;;;;;;;5037646;28;20033;-37
2021/12/20 10:55:43;;;;;;;2.22;1.23;;;;;;;;;;5037602;28;20037;-35
2021/12/20 10:58:28;;;;;;;2.90;1.20;;;;;;;;;;5037191;28;20025;-35
2021/12/20 11:03:58;;;;;;;1.55;1.38;;;;;;;;;;5037227;28;20492;-36
2021/12/20 11:06:26;;;;;;;8.65;1.90;;;;;;;;;;5037226;28;20029;-36
2021/12/20 11:09:09;;;;;;;2.10;1.33;;;;;;;;;;5037571;28;20041;-36
2021/12/20 11:11:34;;;;;;;;;;;;;;;;;;5037770;28;20557;-38
2021/12/20 11:14:00;;;;;;;2.40;1.95;;;;;;;;;;5032871;28;19909;-36
2021/12/20 11:16:28;;;;;;;2.15;1.30;;;;;;;;;;5032801;28;20128;-36
2021/12/20 11:19:10;;;;;;;3.65;1.92;;;;;;;;;;5034204;28;20029;-36
2021/12/20 11:21:45;;;;;;;3.92;1.90;;;;;;;;;;5033973;28;20029;-36
2021/12/20 11:24:11;;;;;;;4.40;2.00;;;;;;;;;;5033862;28;20480;-36
2021/12/20 11:26:38;;;;;;;5.05;1.77;;;;;;;;;;5032971;28;20013;-35
2021/12/20 11:29:04;;;;;;;1.80;1.33;;;;;;;;;;5033835;28;20035;-35
2021/12/20 11:31:29;;;;;;;4.68;1.90;;;;;;;;;;5034156;28;20116;-37
2021/12/20 11:33:55;;;;;;;1.52;1.42;;;;;;;;;;5033701;28;20037;-36
2021/12/20 11:36:21;;;;;;;1.08;1.08;;;;;;;;;;5033726;28;20033;-36
2021/12/20 11:38:46;;;;;;;1.42;1.02;;;;;;;;;;5033461;28;20472;-36
2021/12/20 11:41:12;;;;;;;2.45;1.52;;;;;;;;;;5033353;28;20271;-36
2021/12/20 11:43:39;;;;;;;2.65;1.35;;;;;;;;;;5033639;28;20029;-35
2021/12/20 11:46:06;;;;;;;1.33;0.95;;;;;;;;;;5033547;28;20037;-36
2021/12/20 11:48:32;;;;;;;1.70;1.02;;;;;;;;;;5033530;28;20029;-36
2021/12/20 11:50:58;;;;;;;1.67;1.55;;;;;;;;;;5033713;28;20025;-35
2021/12/20 11:53:24;;;;;;;3.30;2.22;;;;;;;;;;5033742;28;20048;-35
2021/12/20 11:55:54;;;;;;;3.08;1.30;;;;;;;;;;5033289;28;20480;-36
2021/12/20 11:58:21;;;;;;;2.85;1.60;;;;;;;;;;5033244;28;20048;-35
2021/12/20 12:00:48;;;;;;;1.92;1.50;;;;;;;;;;5033588;28;20045;-36
2021/12/20 12:03:14;;;;;;;4.63;2.10;;;;;;;;;;5033514;28;20131;-36
2021/12/20 12:05:52;;;;;;;1.30;1.08;;;;;;;;;;5033204;28;20483;-36
2021/12/20 12:08:21;;;;;;;2.40;1.25;;;;;;;;;;5031993;28;20080;-36
2021/12/20 12:10:47;;;;;;;2.30;1.75;;;;;;;;;;5032958;28;20029;-35
2021/12/20 12:13:16;;;;;;;2.17;1.38;;;;;;;;;;5033273;28;20040;-35
2021/12/20 12:16:04;;;;;;;1.85;1.42;;;;;;;;;;5033316;28;20026;-36
2021/12/20 12:18:44;;;;;;;1.45;1.35;;;;;;;;;;5032859;28;20053;-36
2021/12/20 12:21:30;;;;;;;3.85;2.13;;;;;;;;;;5032795;28;20112;-36
2021/12/20 12:23:55;;;;;;;2.35;1.52;;;;;;;;;;5032350;28;20121;-40
2021/12/20 12:26:34;;;;;;;2.97;1.38;;;;;;;;;;5032849;28;20104;-36
2021/12/20 12:29:00;;;;;;;1.80;1.40;;;;;;;;;;5032891;28;20436;-36
2021/12/20 12:31:27;;;;;;;1.52;1.42;;;;;;;;;;5032611;28;20483;-35
2021/12/20 12:34:09;;;;;;;3.22;1.40;;;;;;;;;;5032720;28;20527;-36
2021/12/20 12:36:43;;;;;;;1.83;1.42;;;;;;;;;;5032525;28;20099;-36
2021/12/20 12:39:10;;;;;;;1.83;1.60;;;;;;;;;;5032354;28;20568;-35
2021/12/20 12:41:47;;;;;;;3.10;1.48;;;;;;;;;;5032518;28;20044;-36
2021/12/20 12:44:27;;;;;;;2.88;1.40;;;;;;;;;;5032732;28;20448;-35
2021/12/20 12:46:53;;;;;;;2.03;0.98;;;;;;;;;;5032327;28;20111;-36
2021/12/20 12:49:22;;;;;;;1.25;1.15;;;;;;;;;;5032385;28;20480;-36
2021/12/20 12:51:48;;;;;;;3.75;2.20;;;;;;;;;;5032309;28;20036;-36
2021/12/20 12:54:32;;;;;;;3.65;1.58;;;;;;;;;;5032126;28;20050;-36
2021/12/20 12:57:10;;;;;;;2.95;0.93;;;;;;;;;;5032174;28;20041;-36
2021/12/20 12:59:57;;;;;;;3.70;1.50;;;;;;;;;;5032096;28;20033;-36
2021/12/20 13:02:24;;;;;;;2.50;1.67;;;;;;;;;;5028498;28;20047;-36
2021/12/20 13:04:52;;;;;;;1.77;1.20;;;;;;;;;;5032048;28;20027;-36
2021/12/20 13:07:19;;;;;;;1.10;1.00;;;;;;;;;;5030579;28;20080;-36
2021/12/20 13:09:46;;;;;;;1.35;1.13;;;;;;;;;;5032004;28;20128;-36
2021/12/20 13:12:27;;;;;;;2.30;1.20;;;;;;;;;;5032200;28;20034;-36
2021/12/20 13:15:25;;;;;;;1.35;1.25;;;;;;;;;;5031846;28;20559;-35
2021/12/20 13:17:51;;;;;;;2.08;1.50;;;;;;;;;;5031697;28;20068;-36
2021/12/20 13:20:34;;;;;;;1.17;1.02;;;;;;;;;;5031957;28;20104;-35
2021/12/20 13:22:59;;;;;;;;;;;;;;;;;;5032396;28;20084;-36
2021/12/20 13:25:33;;;;;;;2.45;1.25;;;;;;;;;;5032081;28;19908;-36
2021/12/20 13:27:59;;;;;;;2.60;2.25;;;;;;;;;;5031492;28;20037;-36
2021/12/20 13:30:29;;;;;;;2.72;1.98;;;;;;;;;;5031720;28;20040;-35
2021/12/20 13:32:55;;;;;;;2.10;1.30;;;;;;;;;;5031906;28;20064;-36
2021/12/20 13:35:21;;;;;;;1.88;1.13;;;;;;;;;;5031005;28;20037;-36
2021/12/20 13:37:47;;;;;;;1.90;1.25;;;;;;;;;;5031302;28;20034;-36
2021/12/20 13:40:13;;;;;;;3.00;1.88;;;;;;;;;;5031298;28;20053;-36
2021/12/20 13:42:53;;;;;;;2.35;1.30;;;;;;;;;;5031488;28;20045;-36
2021/12/20 13:45:18;;;;;;;1.88;1.33;;;;;;;;;;5031488;28;20496;-36
2021/12/20 13:47:44;;;;;;;4.03;1.58;;;;;;;;;;5031388;28;20108;-36
2021/12/20 13:50:19;;;;;;;2.72;1.30;;;;;;;;;;5031284;28;20071;-36
2021/12/20 13:52:46;;;;;;;2.92;1.50;;;;;;;;;;5031394;28;20033;-36
2021/12/20 13:55:11;;;;;;;2.58;1.08;;;;;;;;;;5031249;28;20107;-35
2021/12/20 13:57:37;;;;;;;2.10;1.30;;;;;;;;;;5031184;28;20029;-36
2021/12/20 14:00:07;;;;;;;2.63;1.60;;;;;;;;;;5031233;28;20119;-36
2021/12/20 14:02:39;;;;;;;1.45;1.35;;;;;;;;;;5031388;28;20029;-36
2021/12/20 14:05:14;;;;;;;4.75;2.20;;;;;;;;;;5031090;28;20472;-35
2021/12/20 14:07:43;;;;;;;2.28;1.02;;;;;;;;;;5031529;28;20136;-35
2021/12/20 14:10:10;;;;;;;3.20;1.50;;;;;;;;;;5031124;28;20034;-36
2021/12/20 14:13:08;;;;;;;4.57;1.88;;;;;;;;;;5031391;28;20087;-36
2021/12/20 14:15:37;;;;;;;2.88;1.67;;;;;;;;;;5027060;28;20149;-36
2021/12/20 14:18:15;;;;;;;1.77;1.17;;;;;;;;;;5031310;28;20124;-36
2021/12/20 14:20:43;;;;;;;1.40;1.00;;;;;;;;;;5031129;28;20095;-36
2021/12/20 14:23:15;;;;;;;1.65;1.17;;;;;;;;;;5031344;28;20061;-35
2021/12/20 14:25:45;;;;;;;2.88;1.52;;;;;;;;;;5031146;28;20044;-36
2021/12/20 14:28:12;;;;;;;3.20;1.65;;;;;;;;;;5031006;28;20072;-36
2021/12/20 14:30:49;;;;;;;2.42;1.42;;;;;;;;;;5031267;28;20030;-36
2021/12/20 14:33:17;;;;;;;2.25;1.48;;;;;;;;;;5030903;28;20021;-36
2021/12/20 14:35:49;;;;;;;2.70;1.08;;;;;;;;;;5030877;28;20674;-36
2021/12/20 14:38:46;;;;;;;2.53;1.60;;;;;;;;;;5031113;28;20021;-35
2021/12/20 14:41:15;;;;;;;1.77;1.13;;;;;;;;;;5023447;28;20065;-35
2021/12/20 14:43:42;;;;;;;2.05;1.27;;;;;;;;;;5031148;28;20030;-36
2021/12/20 14:46:15;;;;;;;2.05;1.20;;;;;;;;;;5030740;28;20063;-36
2021/12/20 14:48:45;;;;;;;1.75;1.58;;;;;;;;;;5034218;28;20030;-36
2021/12/20 14:51:18;;;;;;;1.92;1.25;;;;;;;;;;5034491;28;20498;-36
2021/12/20 14:53:44;;;;;;;1.70;1.30;;;;;;;;;;5034526;28;20029;-35
2021/12/20 14:56:10;;;;;;;3.00;1.27;;;;;;;;;;5034327;28;20041;-36